sensor_id;sensor_type;location;lat;lon;timestamp;P1;durP1;ratioP1;P2;durP2;ratioP2
3068;SDS011;1545;51.728;8.796;2022-10-31T00:01:17;22.27;;;10.07;;
3068;SDS011;1545;51.728;8.796;2022-10-31T00:03:45;28.17;;;9.97;;
3068;SDS011;1545;51.728;8.796;2022-10-31T00:06:12;22.73;;;9.80;;
3068;SDS011;1545;51.728;8.796;2022-10-31T00:08:38;25.63;;;9.73;;
3068;SDS011;1545;51.728;8.796;2022-10-31T00:11:07;26.53;;;9.87;;
3068;SDS011;1545;51.728;8.796;2022-10-31T00:13:33;32.37;;;10.57;;
3068;SDS011;1545;51.728;8.796;2022-10-31T00:15:59;28.83;;;10.70;;
3068;SDS011;1545;51.728;8.796;2022-10-31T00:18:24;30.10;;;10.53;;
3068;SDS011;1545;51.728;8.796;2022-10-31T00:20:57;30.73;;;10.33;;
3068;SDS011;1545;51.728;8.796;2022-10-31T00:23:27;28.00;;;10.43;;
3068;SDS011;1545;51.728;8.796;2022-10-31T00:25:53;28.57;;;10.50;;
3068;SDS011;1545;51.728;8.796;2022-10-31T00:28:18;21.63;;;10.20;;
3068;SDS011;1545;51.728;8.796;2022-10-31T00:30:44;34.87;;;11.33;;
3068;SDS011;1545;51.728;8.796;2022-10-31T00:33:09;41.37;;;11.83;;
3068;SDS011;1545;51.728;8.796;2022-10-31T00:35:35;31.10;;;10.83;;
3068;SDS011;1545;51.728;8.796;2022-10-31T00:38:00;26.30;;;9.73;;
3068;SDS011;1545;51.728;8.796;2022-10-31T00:40:26;29.33;;;10.73;;
3068;SDS011;1545;51.728;8.796;2022-10-31T00:43:01;28.43;;;11.87;;
3068;SDS011;1545;51.728;8.796;2022-10-31T00:45:26;26.97;;;9.60;;
3068;SDS011;1545;51.728;8.796;2022-10-31T00:47:52;36.43;;;10.50;;
3068;SDS011;1545;51.728;8.796;2022-10-31T00:50:17;26.23;;;11.27;;
3068;SDS011;1545;51.728;8.796;2022-10-31T00:52:43;30.57;;;10.73;;
3068;SDS011;1545;51.728;8.796;2022-10-31T00:55:08;27.40;;;11.77;;
3068;SDS011;1545;51.728;8.796;2022-10-31T00:57:34;25.07;;;10.60;;
3068;SDS011;1545;51.728;8.796;2022-10-31T00:59:59;28.27;;;11.27;;
3068;SDS011;1545;51.728;8.796;2022-10-31T01:02:24;32.00;;;11.57;;
3068;SDS011;1545;51.728;8.796;2022-10-31T01:04:50;29.40;;;11.13;;
3068;SDS011;1545;51.728;8.796;2022-10-31T01:07:15;23.63;;;11.10;;
3068;SDS011;1545;51.728;8.796;2022-10-31T01:09:41;31.93;;;11.53;;
3068;SDS011;1545;51.728;8.796;2022-10-31T01:12:07;25.83;;;11.50;;
3068;SDS011;1545;51.728;8.796;2022-10-31T01:14:33;28.07;;;11.23;;
3068;SDS011;1545;51.728;8.796;2022-10-31T01:16:58;24.57;;;11.60;;
3068;SDS011;1545;51.728;8.796;2022-10-31T01:19:24;35.90;;;11.23;;
3068;SDS011;1545;51.728;8.796;2022-10-31T01:21:49;33.07;;;10.83;;
3068;SDS011;1545;51.728;8.796;2022-10-31T01:24:15;38.53;;;12.57;;
3068;SDS011;1545;51.728;8.796;2022-10-31T01:26:40;29.97;;;11.17;;
3068;SDS011;1545;51.728;8.796;2022-10-31T01:29:07;25.60;;;10.50;;
3068;SDS011;1545;51.728;8.796;2022-10-31T01:31:35;30.17;;;11.50;;
3068;SDS011;1545;51.728;8.796;2022-10-31T01:34:02;23.50;;;10.97;;
3068;SDS011;1545;51.728;8.796;2022-10-31T01:36:36;27.90;;;11.30;;
3068;SDS011;1545;51.728;8.796;2022-10-31T01:39:04;32.83;;;11.57;;
3068;SDS011;1545;51.728;8.796;2022-10-31T01:41:32;33.57;;;11.43;;
3068;SDS011;1545;51.728;8.796;2022-10-31T01:44:00;36.23;;;12.20;;
3068;SDS011;1545;51.728;8.796;2022-10-31T01:46:36;27.97;;;11.47;;
3068;SDS011;1545;51.728;8.796;2022-10-31T01:49:05;30.53;;;11.47;;
3068;SDS011;1545;51.728;8.796;2022-10-31T01:51:38;31.33;;;11.20;;
3068;SDS011;1545;51.728;8.796;2022-10-31T01:54:08;30.53;;;12.27;;
3068;SDS011;1545;51.728;8.796;2022-10-31T01:56:38;34.13;;;13.70;;
3068;SDS011;1545;51.728;8.796;2022-10-31T01:59:07;42.10;;;13.40;;
3068;SDS011;1545;51.728;8.796;2022-10-31T02:01:35;32.20;;;12.13;;
3068;SDS011;1545;51.728;8.796;2022-10-31T02:04:02;26.90;;;11.40;;
3068;SDS011;1545;51.728;8.796;2022-10-31T02:09:06;31.73;;;12.63;;
3068;SDS011;1545;51.728;8.796;2022-10-31T02:11:32;32.53;;;13.07;;
3068;SDS011;1545;51.728;8.796;2022-10-31T02:14:00;40.53;;;14.53;;
3068;SDS011;1545;51.728;8.796;2022-10-31T02:16:27;35.23;;;13.53;;
3068;SDS011;1545;51.728;8.796;2022-10-31T02:18:53;31.83;;;14.20;;
3068;SDS011;1545;51.728;8.796;2022-10-31T02:24:24;35.17;;;14.97;;
3068;SDS011;1545;51.728;8.796;2022-10-31T02:30:18;46.27;;;14.97;;
3068;SDS011;1545;51.728;8.796;2022-10-31T02:35:33;43.40;;;16.10;;
3068;SDS011;1545;51.728;8.796;2022-10-31T02:44:08;45.17;;;16.57;;
3068;SDS011;1545;51.728;8.796;2022-10-31T02:46:49;34.13;;;16.97;;
3068;SDS011;1545;51.728;8.796;2022-10-31T02:49:43;42.10;;;17.73;;
3068;SDS011;1545;51.728;8.796;2022-10-31T02:52:24;39.27;;;18.70;;
3068;SDS011;1545;51.728;8.796;2022-10-31T02:54:51;40.27;;;17.93;;
3068;SDS011;1545;51.728;8.796;2022-10-31T02:57:19;36.97;;;18.30;;
3068;SDS011;1545;51.728;8.796;2022-10-31T02:59:51;50.10;;;19.67;;
3068;SDS011;1545;51.728;8.796;2022-10-31T03:02:38;41.47;;;18.97;;
3068;SDS011;1545;51.728;8.796;2022-10-31T03:13:05;41.67;;;19.27;;
3068;SDS011;1545;51.728;8.796;2022-10-31T03:15:45;41.80;;;18.00;;
3068;SDS011;1545;51.728;8.796;2022-10-31T03:18:21;45.30;;;19.93;;
3068;SDS011;1545;51.728;8.796;2022-10-31T03:20:58;44.80;;;20.27;;
3068;SDS011;1545;51.728;8.796;2022-10-31T03:23:33;51.93;;;18.80;;
3068;SDS011;1545;51.728;8.796;2022-10-31T03:26:01;37.30;;;17.63;;
3068;SDS011;1545;51.728;8.796;2022-10-31T03:28:30;39.70;;;18.53;;
3068;SDS011;1545;51.728;8.796;2022-10-31T03:31:23;43.90;;;19.07;;
3068;SDS011;1545;51.728;8.796;2022-10-31T03:33:54;44.23;;;19.37;;
3068;SDS011;1545;51.728;8.796;2022-10-31T03:36:23;61.20;;;21.60;;
3068;SDS011;1545;51.728;8.796;2022-10-31T03:38:50;49.37;;;22.63;;
3068;SDS011;1545;51.728;8.796;2022-10-31T03:41:18;47.97;;;22.17;;
3068;SDS011;1545;51.728;8.796;2022-10-31T03:43:54;55.97;;;22.23;;
3068;SDS011;1545;51.728;8.796;2022-10-31T03:46:23;58.33;;;22.37;;
3068;SDS011;1545;51.728;8.796;2022-10-31T03:48:49;47.10;;;23.17;;
3068;SDS011;1545;51.728;8.796;2022-10-31T03:51:19;61.30;;;24.07;;
3068;SDS011;1545;51.728;8.796;2022-10-31T03:53:59;50.93;;;21.83;;
3068;SDS011;1545;51.728;8.796;2022-10-31T03:56:36;50.60;;;22.27;;
3068;SDS011;1545;51.728;8.796;2022-10-31T03:59:13;57.93;;;24.10;;
3068;SDS011;1545;51.728;8.796;2022-10-31T04:01:45;58.90;;;23.83;;
3068;SDS011;1545;51.728;8.796;2022-10-31T04:04:15;52.57;;;24.40;;
3068;SDS011;1545;51.728;8.796;2022-10-31T04:06:41;51.23;;;25.23;;
3068;SDS011;1545;51.728;8.796;2022-10-31T04:09:09;53.07;;;25.60;;
3068;SDS011;1545;51.728;8.796;2022-10-31T04:11:40;66.83;;;28.60;;
3068;SDS011;1545;51.728;8.796;2022-10-31T04:14:11;79.43;;;29.97;;
3068;SDS011;1545;51.728;8.796;2022-10-31T04:16:38;83.80;;;30.00;;
3068;SDS011;1545;51.728;8.796;2022-10-31T04:19:06;74.37;;;28.97;;
3068;SDS011;1545;51.728;8.796;2022-10-31T04:21:32;63.10;;;27.23;;
3068;SDS011;1545;51.728;8.796;2022-10-31T04:23:57;64.77;;;27.33;;
3068;SDS011;1545;51.728;8.796;2022-10-31T04:26:23;58.53;;;26.93;;
3068;SDS011;1545;51.728;8.796;2022-10-31T04:28:49;62.87;;;26.77;;
3068;SDS011;1545;51.728;8.796;2022-10-31T04:31:14;71.93;;;28.10;;
3068;SDS011;1545;51.728;8.796;2022-10-31T04:33:40;69.40;;;28.73;;
3068;SDS011;1545;51.728;8.796;2022-10-31T04:36:05;80.90;;;30.43;;
3068;SDS011;1545;51.728;8.796;2022-10-31T04:38:31;75.57;;;31.17;;
3068;SDS011;1545;51.728;8.796;2022-10-31T04:40:57;69.00;;;29.30;;
3068;SDS011;1545;51.728;8.796;2022-10-31T04:43:23;90.10;;;30.17;;
3068;SDS011;1545;51.728;8.796;2022-10-31T04:45:49;86.20;;;31.03;;
3068;SDS011;1545;51.728;8.796;2022-10-31T04:48:14;90.83;;;32.73;;
3068;SDS011;1545;51.728;8.796;2022-10-31T04:50:40;101.80;;;35.90;;
3068;SDS011;1545;51.728;8.796;2022-10-31T04:53:05;104.33;;;35.87;;
3068;SDS011;1545;51.728;8.796;2022-10-31T04:55:31;97.53;;;36.10;;
3068;SDS011;1545;51.728;8.796;2022-10-31T04:57:57;77.40;;;31.43;;
3068;SDS011;1545;51.728;8.796;2022-10-31T05:00:22;81.67;;;32.63;;
3068;SDS011;1545;51.728;8.796;2022-10-31T05:02:49;90.47;;;32.03;;
3068;SDS011;1545;51.728;8.796;2022-10-31T05:05:16;84.37;;;33.40;;
3068;SDS011;1545;51.728;8.796;2022-10-31T05:07:44;73.73;;;31.60;;
3068;SDS011;1545;51.728;8.796;2022-10-31T05:10:12;94.77;;;35.23;;
3068;SDS011;1545;51.728;8.796;2022-10-31T05:12:48;85.80;;;36.20;;
3068;SDS011;1545;51.728;8.796;2022-10-31T05:15:15;111.43;;;39.63;;
3068;SDS011;1545;51.728;8.796;2022-10-31T05:17:42;111.27;;;41.30;;
3068;SDS011;1545;51.728;8.796;2022-10-31T05:20:08;112.67;;;41.50;;
3068;SDS011;1545;51.728;8.796;2022-10-31T05:22:34;110.17;;;41.27;;
3068;SDS011;1545;51.728;8.796;2022-10-31T05:24:59;104.17;;;41.60;;
3068;SDS011;1545;51.728;8.796;2022-10-31T05:27:25;116.43;;;41.37;;
3068;SDS011;1545;51.728;8.796;2022-10-31T05:29:51;127.17;;;43.33;;
3068;SDS011;1545;51.728;8.796;2022-10-31T05:32:16;116.60;;;44.57;;
3068;SDS011;1545;51.728;8.796;2022-10-31T05:34:42;140.43;;;46.80;;
3068;SDS011;1545;51.728;8.796;2022-10-31T05:37:07;131.23;;;48.20;;
3068;SDS011;1545;51.728;8.796;2022-10-31T05:39:33;149.67;;;50.27;;
3068;SDS011;1545;51.728;8.796;2022-10-31T05:41:58;165.13;;;50.30;;
3068;SDS011;1545;51.728;8.796;2022-10-31T05:44:24;159.83;;;51.40;;
3068;SDS011;1545;51.728;8.796;2022-10-31T05:46:49;144.83;;;48.20;;
3068;SDS011;1545;51.728;8.796;2022-10-31T05:49:15;152.27;;;50.57;;
3068;SDS011;1545;51.728;8.796;2022-10-31T05:51:42;154.07;;;52.73;;
3068;SDS011;1545;51.728;8.796;2022-10-31T05:54:07;140.90;;;53.03;;
3068;SDS011;1545;51.728;8.796;2022-10-31T05:56:33;150.43;;;51.73;;
3068;SDS011;1545;51.728;8.796;2022-10-31T05:58:58;161.03;;;54.30;;
3068;SDS011;1545;51.728;8.796;2022-10-31T06:01:24;162.87;;;53.67;;
3068;SDS011;1545;51.728;8.796;2022-10-31T06:03:49;170.17;;;53.40;;
3068;SDS011;1545;51.728;8.796;2022-10-31T06:06:15;168.20;;;54.50;;
3068;SDS011;1545;51.728;8.796;2022-10-31T06:08:40;164.33;;;52.07;;
3068;SDS011;1545;51.728;8.796;2022-10-31T06:11:06;149.40;;;50.67;;
3068;SDS011;1545;51.728;8.796;2022-10-31T06:13:31;146.63;;;50.90;;
3068;SDS011;1545;51.728;8.796;2022-10-31T06:15:57;150.03;;;50.27;;
3068;SDS011;1545;51.728;8.796;2022-10-31T06:18:22;155.43;;;52.80;;
3068;SDS011;1545;51.728;8.796;2022-10-31T06:20:48;163.17;;;54.47;;
3068;SDS011;1545;51.728;8.796;2022-10-31T06:23:14;172.73;;;53.97;;
3068;SDS011;1545;51.728;8.796;2022-10-31T06:25:39;161.97;;;54.23;;
3068;SDS011;1545;51.728;8.796;2022-10-31T06:28:05;152.33;;;53.20;;
3068;SDS011;1545;51.728;8.796;2022-10-31T06:30:30;166.70;;;53.37;;
3068;SDS011;1545;51.728;8.796;2022-10-31T06:33:01;165.20;;;54.23;;
3068;SDS011;1545;51.728;8.796;2022-10-31T06:35:28;165.70;;;55.20;;
3068;SDS011;1545;51.728;8.796;2022-10-31T06:37:53;159.20;;;52.10;;
3068;SDS011;1545;51.728;8.796;2022-10-31T06:40:19;146.70;;;48.63;;
3068;SDS011;1545;51.728;8.796;2022-10-31T06:42:45;147.23;;;49.40;;
3068;SDS011;1545;51.728;8.796;2022-10-31T06:45:10;149.63;;;50.80;;
3068;SDS011;1545;51.728;8.796;2022-10-31T06:47:36;154.93;;;50.47;;
3068;SDS011;1545;51.728;8.796;2022-10-31T06:50:01;149.33;;;49.73;;
3068;SDS011;1545;51.728;8.796;2022-10-31T06:52:27;143.70;;;48.50;;
3068;SDS011;1545;51.728;8.796;2022-10-31T06:54:53;137.37;;;48.83;;
3068;SDS011;1545;51.728;8.796;2022-10-31T06:57:18;130.47;;;46.10;;
3068;SDS011;1545;51.728;8.796;2022-10-31T06:59:44;142.90;;;49.73;;
3068;SDS011;1545;51.728;8.796;2022-10-31T07:02:10;150.07;;;51.10;;
3068;SDS011;1545;51.728;8.796;2022-10-31T07:04:35;164.17;;;49.73;;
3068;SDS011;1545;51.728;8.796;2022-10-31T07:07:01;141.57;;;47.97;;
3068;SDS011;1545;51.728;8.796;2022-10-31T07:09:29;134.53;;;47.57;;
3068;SDS011;1545;51.728;8.796;2022-10-31T07:11:55;126.80;;;47.50;;
3068;SDS011;1545;51.728;8.796;2022-10-31T07:14:20;129.37;;;46.53;;
3068;SDS011;1545;51.728;8.796;2022-10-31T07:16:49;124.80;;;46.27;;
3068;SDS011;1545;51.728;8.796;2022-10-31T07:19:15;114.60;;;46.33;;
3068;SDS011;1545;51.728;8.796;2022-10-31T07:21:41;145.17;;;48.97;;
3068;SDS011;1545;51.728;8.796;2022-10-31T07:24:07;122.63;;;46.13;;
3068;SDS011;1545;51.728;8.796;2022-10-31T07:26:32;123.60;;;45.03;;
3068;SDS011;1545;51.728;8.796;2022-10-31T07:28:58;131.70;;;44.17;;
3068;SDS011;1545;51.728;8.796;2022-10-31T07:31:24;115.97;;;44.17;;
3068;SDS011;1545;51.728;8.796;2022-10-31T07:33:50;110.07;;;44.17;;
3068;SDS011;1545;51.728;8.796;2022-10-31T07:36:16;109.57;;;42.67;;
3068;SDS011;1545;51.728;8.796;2022-10-31T07:38:41;108.20;;;43.73;;
3068;SDS011;1545;51.728;8.796;2022-10-31T07:41:07;111.40;;;43.07;;
3068;SDS011;1545;51.728;8.796;2022-10-31T07:43:32;103.23;;;41.73;;
3068;SDS011;1545;51.728;8.796;2022-10-31T07:45:58;98.57;;;41.37;;
3068;SDS011;1545;51.728;8.796;2022-10-31T07:48:23;96.03;;;40.33;;
3068;SDS011;1545;51.728;8.796;2022-10-31T07:50:49;95.67;;;39.07;;
3068;SDS011;1545;51.728;8.796;2022-10-31T07:53:15;103.67;;;38.73;;
3068;SDS011;1545;51.728;8.796;2022-10-31T07:55:41;92.03;;;37.97;;
3068;SDS011;1545;51.728;8.796;2022-10-31T07:58:07;109.87;;;38.73;;
3068;SDS011;1545;51.728;8.796;2022-10-31T08:00:35;95.97;;;39.87;;
3068;SDS011;1545;51.728;8.796;2022-10-31T08:03:03;98.40;;;40.60;;
3068;SDS011;1545;51.728;8.796;2022-10-31T08:05:31;94.60;;;40.17;;
3068;SDS011;1545;51.728;8.796;2022-10-31T08:07:57;102.30;;;40.57;;
3068;SDS011;1545;51.728;8.796;2022-10-31T08:10:23;94.17;;;41.87;;
3068;SDS011;1545;51.728;8.796;2022-10-31T08:12:59;102.83;;;41.10;;
3068;SDS011;1545;51.728;8.796;2022-10-31T08:15:26;76.43;;;37.23;;
3068;SDS011;1545;51.728;8.796;2022-10-31T08:17:52;76.57;;;36.10;;
3068;SDS011;1545;51.728;8.796;2022-10-31T08:20:18;85.17;;;37.13;;
3068;SDS011;1545;51.728;8.796;2022-10-31T08:22:52;85.43;;;36.10;;
3068;SDS011;1545;51.728;8.796;2022-10-31T08:25:19;78.93;;;34.17;;
3068;SDS011;1545;51.728;8.796;2022-10-31T08:27:48;88.10;;;38.53;;
3068;SDS011;1545;51.728;8.796;2022-10-31T08:30:15;80.03;;;37.90;;
3068;SDS011;1545;51.728;8.796;2022-10-31T08:32:40;105.67;;;40.97;;
3068;SDS011;1545;51.728;8.796;2022-10-31T08:35:06;103.43;;;42.37;;
3068;SDS011;1545;51.728;8.796;2022-10-31T08:37:32;98.93;;;41.33;;
3068;SDS011;1545;51.728;8.796;2022-10-31T08:39:57;102.47;;;39.63;;
3068;SDS011;1545;51.728;8.796;2022-10-31T08:42:23;101.80;;;39.50;;
3068;SDS011;1545;51.728;8.796;2022-10-31T08:44:48;94.73;;;38.13;;
3068;SDS011;1545;51.728;8.796;2022-10-31T08:47:14;89.30;;;36.60;;
3068;SDS011;1545;51.728;8.796;2022-10-31T08:49:39;86.20;;;35.83;;
3068;SDS011;1545;51.728;8.796;2022-10-31T08:52:05;94.10;;;36.03;;
3068;SDS011;1545;51.728;8.796;2022-10-31T08:54:30;87.70;;;35.10;;
3068;SDS011;1545;51.728;8.796;2022-10-31T08:56:56;85.87;;;34.23;;
3068;SDS011;1545;51.728;8.796;2022-10-31T08:59:21;81.40;;;34.17;;
3068;SDS011;1545;51.728;8.796;2022-10-31T09:01:47;81.17;;;35.10;;
3068;SDS011;1545;51.728;8.796;2022-10-31T09:04:13;76.30;;;32.67;;
3068;SDS011;1545;51.728;8.796;2022-10-31T09:06:38;87.50;;;32.93;;
3068;SDS011;1545;51.728;8.796;2022-10-31T09:09:04;80.13;;;31.33;;
3068;SDS011;1545;51.728;8.796;2022-10-31T09:11:30;74.07;;;30.73;;
3068;SDS011;1545;51.728;8.796;2022-10-31T09:13:56;67.30;;;29.93;;
3068;SDS011;1545;51.728;8.796;2022-10-31T09:16:21;73.93;;;30.57;;
3068;SDS011;1545;51.728;8.796;2022-10-31T09:18:47;83.97;;;31.87;;
3068;SDS011;1545;51.728;8.796;2022-10-31T09:21:12;79.30;;;29.20;;
3068;SDS011;1545;51.728;8.796;2022-10-31T09:23:38;63.13;;;27.90;;
3068;SDS011;1545;51.728;8.796;2022-10-31T09:26:03;63.30;;;29.37;;
3068;SDS011;1545;51.728;8.796;2022-10-31T09:28:29;61.77;;;26.80;;
3068;SDS011;1545;51.728;8.796;2022-10-31T09:30:56;71.67;;;28.77;;
3068;SDS011;1545;51.728;8.796;2022-10-31T09:33:22;65.17;;;26.77;;
3068;SDS011;1545;51.728;8.796;2022-10-31T09:35:48;63.70;;;26.67;;
3068;SDS011;1545;51.728;8.796;2022-10-31T09:38:17;58.17;;;27.53;;
3068;SDS011;1545;51.728;8.796;2022-10-31T09:40:45;56.43;;;26.00;;
3068;SDS011;1545;51.728;8.796;2022-10-31T09:43:30;65.47;;;24.77;;
3068;SDS011;1545;51.728;8.796;2022-10-31T09:46:03;60.30;;;24.03;;
3068;SDS011;1545;51.728;8.796;2022-10-31T09:48:41;53.97;;;22.27;;
3068;SDS011;1545;51.728;8.796;2022-10-31T09:51:33;55.43;;;21.83;;
3068;SDS011;1545;51.728;8.796;2022-10-31T09:56:48;41.80;;;21.00;;
3068;SDS011;1545;51.728;8.796;2022-10-31T09:59:56;60.77;;;22.37;;
3068;SDS011;1545;51.728;8.796;2022-10-31T10:02:06;63.00;;;23.40;;
3068;SDS011;1545;51.728;8.796;2022-10-31T10:04:48;51.73;;;23.63;;
3068;SDS011;1545;51.728;8.796;2022-10-31T10:07:40;54.70;;;24.90;;
3068;SDS011;1545;51.728;8.796;2022-10-31T10:13:32;48.87;;;24.43;;
3068;SDS011;1545;51.728;8.796;2022-10-31T10:19:07;57.47;;;27.37;;
3068;SDS011;1545;51.728;8.796;2022-10-31T10:21:48;57.23;;;25.90;;
3068;SDS011;1545;51.728;8.796;2022-10-31T10:32:53;63.30;;;27.53;;
3068;SDS011;1545;51.728;8.796;2022-10-31T10:38:09;57.87;;;27.00;;
3068;SDS011;1545;51.728;8.796;2022-10-31T10:40:54;60.27;;;26.47;;
3068;SDS011;1545;51.728;8.796;2022-10-31T10:43:21;49.10;;;25.97;;
3068;SDS011;1545;51.728;8.796;2022-10-31T10:46:05;47.43;;;24.10;;
3068;SDS011;1545;51.728;8.796;2022-10-31T10:49:06;59.23;;;25.27;;
3068;SDS011;1545;51.728;8.796;2022-10-31T10:51:45;44.47;;;21.93;;
3068;SDS011;1545;51.728;8.796;2022-10-31T10:54:24;44.83;;;20.70;;
3068;SDS011;1545;51.728;8.796;2022-10-31T10:59:32;41.10;;;17.77;;
3068;SDS011;1545;51.728;8.796;2022-10-31T11:01:58;39.60;;;17.33;;
3068;SDS011;1545;51.728;8.796;2022-10-31T11:07:00;39.93;;;15.57;;
3068;SDS011;1545;51.728;8.796;2022-10-31T11:09:34;47.07;;;15.73;;
3068;SDS011;1545;51.728;8.796;2022-10-31T11:12:08;30.37;;;15.00;;
3068;SDS011;1545;51.728;8.796;2022-10-31T11:14:56;42.93;;;15.47;;
3068;SDS011;1545;51.728;8.796;2022-10-31T11:17:27;38.70;;;14.33;;
3068;SDS011;1545;51.728;8.796;2022-10-31T11:22:36;31.53;;;14.67;;
3068;SDS011;1545;51.728;8.796;2022-10-31T11:30:27;36.20;;;13.97;;
3068;SDS011;1545;51.728;8.796;2022-10-31T11:32:53;28.23;;;13.67;;
3068;SDS011;1545;51.728;8.796;2022-10-31T11:35:20;42.67;;;13.60;;
3068;SDS011;1545;51.728;8.796;2022-10-31T11:37:48;29.70;;;12.70;;
3068;SDS011;1545;51.728;8.796;2022-10-31T11:40:15;30.60;;;12.27;;
3068;SDS011;1545;51.728;8.796;2022-10-31T11:42:46;33.07;;;12.37;;
3068;SDS011;1545;51.728;8.796;2022-10-31T11:45:46;31.23;;;13.13;;
3068;SDS011;1545;51.728;8.796;2022-10-31T11:48:14;40.17;;;12.70;;
3068;SDS011;1545;51.728;8.796;2022-10-31T11:50:42;23.30;;;11.63;;
3068;SDS011;1545;51.728;8.796;2022-10-31T11:53:22;34.20;;;11.83;;
3068;SDS011;1545;51.728;8.796;2022-10-31T11:56:05;32.43;;;11.40;;
3068;SDS011;1545;51.728;8.796;2022-10-31T11:58:37;35.40;;;12.00;;
3068;SDS011;1545;51.728;8.796;2022-10-31T12:01:02;31.47;;;12.33;;
3068;SDS011;1545;51.728;8.796;2022-10-31T12:09:01;23.13;;;12.33;;
3068;SDS011;1545;51.728;8.796;2022-10-31T12:11:46;25.30;;;12.93;;
3068;SDS011;1545;51.728;8.796;2022-10-31T12:14:27;30.53;;;12.50;;
3068;SDS011;1545;51.728;8.796;2022-10-31T12:17:15;32.80;;;12.90;;
3068;SDS011;1545;51.728;8.796;2022-10-31T12:28:04;32.10;;;14.43;;
3068;SDS011;1545;51.728;8.796;2022-10-31T12:36:56;38.00;;;15.33;;
3068;SDS011;1545;51.728;8.796;2022-10-31T12:51:03;32.77;;;14.70;;
3068;SDS011;1545;51.728;8.796;2022-10-31T12:53:43;36.83;;;16.70;;
3068;SDS011;1545;51.728;8.796;2022-10-31T12:56:42;28.47;;;15.43;;
3068;SDS011;1545;51.728;8.796;2022-10-31T13:02:20;33.67;;;16.00;;
3068;SDS011;1545;51.728;8.796;2022-10-31T13:04:56;32.70;;;16.10;;
3068;SDS011;1545;51.728;8.796;2022-10-31T13:07:39;34.03;;;16.77;;
3068;SDS011;1545;51.728;8.796;2022-10-31T13:12:52;33.23;;;17.37;;
3068;SDS011;1545;51.728;8.796;2022-10-31T13:15:22;36.40;;;17.90;;
3068;SDS011;1545;51.728;8.796;2022-10-31T13:17:55;44.17;;;16.20;;
3068;SDS011;1545;51.728;8.796;2022-10-31T13:20:33;38.40;;;17.37;;
3068;SDS011;1545;51.728;8.796;2022-10-31T13:25:56;36.63;;;16.30;;
3068;SDS011;1545;51.728;8.796;2022-10-31T13:31:29;33.53;;;16.43;;
3068;SDS011;1545;51.728;8.796;2022-10-31T13:33:56;33.60;;;16.10;;
3068;SDS011;1545;51.728;8.796;2022-10-31T13:41:55;43.47;;;16.63;;
3068;SDS011;1545;51.728;8.796;2022-10-31T13:44:42;35.00;;;15.80;;
3068;SDS011;1545;51.728;8.796;2022-10-31T13:52:43;38.43;;;16.33;;
3068;SDS011;1545;51.728;8.796;2022-10-31T13:58:19;36.10;;;16.90;;
3068;SDS011;1545;51.728;8.796;2022-10-31T14:03:47;36.47;;;17.43;;
3068;SDS011;1545;51.728;8.796;2022-10-31T14:06:34;37.37;;;16.17;;
3068;SDS011;1545;51.728;8.796;2022-10-31T14:09:19;39.37;;;18.10;;
3068;SDS011;1545;51.728;8.796;2022-10-31T14:11:47;36.83;;;17.47;;
3068;SDS011;1545;51.728;8.796;2022-10-31T14:14:15;39.40;;;17.30;;
3068;SDS011;1545;51.728;8.796;2022-10-31T14:16:42;39.50;;;17.13;;
3068;SDS011;1545;51.728;8.796;2022-10-31T14:19:27;40.20;;;17.33;;
3068;SDS011;1545;51.728;8.796;2022-10-31T14:21:53;40.40;;;17.50;;
3068;SDS011;1545;51.728;8.796;2022-10-31T14:26:53;38.53;;;16.93;;
3068;SDS011;1545;51.728;8.796;2022-10-31T14:29:28;39.53;;;17.13;;
3068;SDS011;1545;51.728;8.796;2022-10-31T14:34:33;36.80;;;16.13;;
3068;SDS011;1545;51.728;8.796;2022-10-31T14:39:45;40.93;;;17.80;;
3068;SDS011;1545;51.728;8.796;2022-10-31T14:48:16;43.00;;;17.63;;
3068;SDS011;1545;51.728;8.796;2022-10-31T14:51:09;35.93;;;17.53;;
3068;SDS011;1545;51.728;8.796;2022-10-31T14:53:44;45.20;;;17.63;;
3068;SDS011;1545;51.728;8.796;2022-10-31T14:56:14;49.90;;;17.67;;
3068;SDS011;1545;51.728;8.796;2022-10-31T14:58:50;54.37;;;17.67;;
3068;SDS011;1545;51.728;8.796;2022-10-31T15:01:35;34.03;;;17.07;;
3068;SDS011;1545;51.728;8.796;2022-10-31T15:04:13;38.00;;;16.87;;
3068;SDS011;1545;51.728;8.796;2022-10-31T15:06:52;30.77;;;16.57;;
3068;SDS011;1545;51.728;8.796;2022-10-31T15:09:35;39.47;;;16.77;;
3068;SDS011;1545;51.728;8.796;2022-10-31T15:14:57;43.50;;;16.27;;
3068;SDS011;1545;51.728;8.796;2022-10-31T15:17:35;33.97;;;15.23;;
3068;SDS011;1545;51.728;8.796;2022-10-31T15:20:07;41.30;;;17.07;;
3068;SDS011;1545;51.728;8.796;2022-10-31T15:22:35;37.53;;;15.97;;
3068;SDS011;1545;51.728;8.796;2022-10-31T15:25:01;36.53;;;15.63;;
3068;SDS011;1545;51.728;8.796;2022-10-31T15:27:27;35.47;;;16.50;;
3068;SDS011;1545;51.728;8.796;2022-10-31T15:29:55;37.77;;;16.57;;
3068;SDS011;1545;51.728;8.796;2022-10-31T15:32:27;40.37;;;16.60;;
3068;SDS011;1545;51.728;8.796;2022-10-31T15:34:54;41.10;;;16.40;;
3068;SDS011;1545;51.728;8.796;2022-10-31T15:37:22;37.17;;;15.63;;
3068;SDS011;1545;51.728;8.796;2022-10-31T15:39:49;35.07;;;16.97;;
3068;SDS011;1545;51.728;8.796;2022-10-31T15:42:29;37.53;;;17.03;;
3068;SDS011;1545;51.728;8.796;2022-10-31T15:47:25;34.43;;;16.67;;
3068;SDS011;1545;51.728;8.796;2022-10-31T15:49:55;42.13;;;16.77;;
3068;SDS011;1545;51.728;8.796;2022-10-31T15:52:31;35.97;;;14.93;;
3068;SDS011;1545;51.728;8.796;2022-10-31T15:57:39;37.70;;;15.03;;
3068;SDS011;1545;51.728;8.796;2022-10-31T16:00:20;35.33;;;14.80;;
3068;SDS011;1545;51.728;8.796;2022-10-31T16:05:47;41.37;;;15.77;;
3068;SDS011;1545;51.728;8.796;2022-10-31T16:08:51;42.63;;;16.07;;
3068;SDS011;1545;51.728;8.796;2022-10-31T16:13:40;44.40;;;16.03;;
3068;SDS011;1545;51.728;8.796;2022-10-31T16:16:16;42.43;;;16.57;;
3068;SDS011;1545;51.728;8.796;2022-10-31T16:18:42;38.37;;;16.60;;
3068;SDS011;1545;51.728;8.796;2022-10-31T16:21:08;38.73;;;15.63;;
3068;SDS011;1545;51.728;8.796;2022-10-31T16:23:35;34.07;;;16.20;;
3068;SDS011;1545;51.728;8.796;2022-10-31T16:26:08;47.40;;;16.70;;
3068;SDS011;1545;51.728;8.796;2022-10-31T16:28:36;36.73;;;16.73;;
3068;SDS011;1545;51.728;8.796;2022-10-31T16:31:05;41.17;;;16.93;;
3068;SDS011;1545;51.728;8.796;2022-10-31T16:33:38;47.67;;;17.03;;
3068;SDS011;1545;51.728;8.796;2022-10-31T16:38:52;42.60;;;16.97;;
3068;SDS011;1545;51.728;8.796;2022-10-31T16:41:24;40.03;;;17.20;;
3068;SDS011;1545;51.728;8.796;2022-10-31T16:43:51;35.87;;;16.53;;
3068;SDS011;1545;51.728;8.796;2022-10-31T16:46:19;42.23;;;18.30;;
3068;SDS011;1545;51.728;8.796;2022-10-31T16:48:48;47.80;;;18.17;;
3068;SDS011;1545;51.728;8.796;2022-10-31T16:51:14;40.57;;;17.77;;
3068;SDS011;1545;51.728;8.796;2022-10-31T16:53:40;45.27;;;18.57;;
3068;SDS011;1545;51.728;8.796;2022-10-31T16:56:05;48.43;;;18.57;;
3068;SDS011;1545;51.728;8.796;2022-10-31T16:58:41;42.33;;;18.90;;
3068;SDS011;1545;51.728;8.796;2022-10-31T17:01:07;46.37;;;20.07;;
3068;SDS011;1545;51.728;8.796;2022-10-31T17:03:32;43.53;;;20.27;;
3068;SDS011;1545;51.728;8.796;2022-10-31T17:05:58;49.83;;;20.47;;
3068;SDS011;1545;51.728;8.796;2022-10-31T17:08:24;49.80;;;19.43;;
3068;SDS011;1545;51.728;8.796;2022-10-31T17:10:50;54.57;;;19.47;;
3068;SDS011;1545;51.728;8.796;2022-10-31T17:13:19;45.90;;;19.73;;
3068;SDS011;1545;51.728;8.796;2022-10-31T17:15:48;46.03;;;19.53;;
3068;SDS011;1545;51.728;8.796;2022-10-31T17:18:16;45.07;;;20.07;;
3068;SDS011;1545;51.728;8.796;2022-10-31T17:20:42;40.83;;;20.00;;
3068;SDS011;1545;51.728;8.796;2022-10-31T17:23:09;41.00;;;19.00;;
3068;SDS011;1545;51.728;8.796;2022-10-31T17:25:36;73.93;;;20.23;;
3068;SDS011;1545;51.728;8.796;2022-10-31T17:28:02;47.30;;;20.10;;
3068;SDS011;1545;51.728;8.796;2022-10-31T17:30:28;40.67;;;20.77;;